Date,TemperatureHighF,TemperatureAvgF,TemperatureLowF,DewpointHighF,DewpointAvgF,DewpointLowF,HumidityHigh,HumidityAvg,HumidityLow,PressureMaxIn,PressureMinIn,WindSpeedMaxMPH,WindSpeedAvgMPH,GustSpeedMaxMPH,PrecipitationSumIn
2013-7-1,77,71,67,72,69,64,94,92,84,30.05,29.94,6,1,7,0.12
2013-7-2,86,75,68,77,71,66,95,87,66,30.12,30.00,13,2,13,0.09
2013-7-3,88,79,72,75,72,70,92,81,61,30.19,30.07,15,2,15,0.00
2013-7-4,93,80,68,76,72,66,95,77,48,30.22,30.01,12,2,13,0.00
2013-7-5,92,81,69,80,73,67,95,78,55,30.19,29.97,12,2,13,0.06
2013-7-6,88,79,70,74,70,66,94,76,53,30.14,29.99,12,2,13,0.00
2013-7-7,92,77,69,78,71,67,94,83,62,30.09,29.88,10,1,11,0.16
2013-7-8,86,78,71,73,70,65,93,78,53,30.06,29.93,9,1,11,0.02
2013-7-9,87,78,71,75,71,68,94,79,60,30.09,29.94,10,2,10,0.19
2013-7-10,87,78,72,76,72,68,91,84,66,30.01,29.77,12,2,13,0.35
2013-7-11,83,76,66,72,65,58,92,70,45,30.03,29.78,15,2,16,0.00
2013-7-12,82,69,63,66,61,58,90,78,49,30.20,30.03,9,2,10,0.00
2013-7-13,79,72,65,72,67,62,92,84,73,30.29,30.21,4,1,9,0.04
2013-7-14,93,79,68,77,71,65,94,79,48,30.34,30.17,8,1,9,0.00
2013-7-15,94,82,71,73,70,64,94,69,45,30.25,30.09,11,2,12,0.00
2013-7-16,94,81,67,74,68,64,93,69,40,30.24,30.08,9,1,9,0.00
2013-7-17,96,82,69,77,70,66,93,71,41,30.23,29.96,10,1,10,0.00
2013-7-18,96,85,75,76,73,69,91,70,45,30.06,29.88,12,2,14,0.00
2013-7-19,98,86,73,76,72,65,93,66,41,29.96,29.67,17,2,18,0.00
2013-7-20,90,78,70,72,66,57,87,66,47,29.89,29.67,17,2,17,0.00
2013-7-21,86,74,61,68,63,58,93,70,43,30.03,29.89,12,1,12,0.00
2013-7-22,88,75,64,70,64,59,91,72,42,30.06,29.81,11,2,12,0.09
2013-7-23,85,75,68,73,69,65,95,84,63,29.85,29.56,11,1,12,1.04
2013-7-24,76,69,61,68,58,49,94,70,50,30.09,29.66,19,2,19,0.00
2013-7-25,73,63,50,59,52,47,90,69,47,30.17,30.07,11,2,12,0.00
2013-7-26,80,67,59,63,57,53,91,71,47,30.15,29.99,11,1,11,0.00
2013-7-27,84,70,53,66,60,51,94,72,39,30.14,29.92,12,2,13,0.00
2013-7-28,76,70,67,69,66,62,93,86,76,30.03,29.92,12,2,14,0.88
2013-7-29,83,71,60,68,61,55,95,72,44,30.18,29.97,11,2,12,0.01
2013-7-30,80,67,54,62,57,51,95,73,44,30.23,30.07,10,1,11,0.00
2013-7-31,81,69,55,64,59,52,93,71,46,30.24,30.03,8,1,8,0.00